CheckWX is a tool to help pilots better visualize weather data.  It is not intended as a substitute for an official pre-flight weather briefing.

20:34:54 UTC

KLNS METAR
Lancaster Airport
Lancaster, Pennsylvania, USA
Current

42 mins ago

KLNS 181953Z 31019G29KT 10SM BKN045 BKN049 05/M03 A3002 RMK AO2 PK WND 31030/1858 SLP169 T00501033
Observed
Feb-18 @ 19:53 UTC
Wind
  • 310° at 19 KTS
  • Gusting to 29 KTS
Visibility
10 SM
Flight Rules
VFR
Cloud Levels
  • Broken at 4,500' AGL
  • Broken at 4,900' AGL
Temperature
C / 41°F
Dewpoint
-3°C / 27°F
Humidity
57%
Altimeter
30.02" Hg
Pressure
1016.9 hPa
Previous

2 hours ago

KLNS 181853Z 32021G28KT 10SM SCT039 BKN050 06/M03 A2998 RMK AO2 PK WND 29031/1755 SLP155 T00611028
Observed
Feb-18 @ 18:53 UTC
Wind
  • 320° at 21 KTS
  • Gusting to 28 KTS
Visibility
10 SM
Flight Rules
VFR
Cloud Levels
  • Scattered at 3,900' AGL
  • Broken at 5,000' AGL
Temperature
C / 43°F
Dewpoint
-3°C / 27°F
Humidity
53%
Altimeter
29.98" Hg
Pressure
1015.5 hPa
Previous

3 hours ago

KLNS 181753Z 30017G24KT 10SM OVC037 06/M02 A2996 RMK AO2 PK WND 30028/1655 SLP149 T00561017 10072 20022 51028
Observed
Feb-18 @ 17:53 UTC
Wind
  • 300° at 17 KTS
  • Gusting to 24 KTS
Visibility
10 SM
Flight Rules
VFR
Cloud Levels
  • Overcast at 3,700' AGL
Temperature
C / 43°F
Dewpoint
-2°C / 28°F
Humidity
57%
Altimeter
29.96" Hg
Pressure
1014.9 hPa